Bay City, TX (77404)

8:21 PM CDT on September 01, 2015 (GMT -0500)
Bay City | | Change Station
CLOSE
Current Station
Airport
Location: Bay City,
Elevation: 46 ft
Nearby Weather Stations

Elev 46 ft 28.97 °N, 95.86 °W | Updated 6 minutes ago

Partly Cloudy
Partly Cloudy
76 °F
Feels Like 76 °F
N
4
Wind Variable Wind from North

Today
High -- | Low -- °F
--% Chance of Precip.
Yesterday
High -- | Low -- °F
Precip. -- in
7:01 AM 7:45 PM
Waning Gibbous, 85% visible
Pressure 29.99 in
Visibility 10.0 miles
Clouds Clear
Dew Point 76 °F
Humidity 98%
Rainfall 1.10 in
Snow Depth Not available.
UV 0 out of 12
Pollen 5.40 out of 12
Air Quality Not available.
Flu Activity Not available.
METAR KBYY 020115Z AUTO 01003KT 10SM CLR 24/24 A2999 RMK AO2 T02460242
Pressure 29.99 in
Visibility 10.0 miles
Clouds Clear
Dew Point 76 °F
Humidity 98%
Rainfall 1.10 in
Snow Depth Not available.
UV 0 out of 12
Pollen 5.40 out of 12
Air Quality Not available.
Flu Activity Not available.
METAR KBYY 020115Z AUTO 01003KT 10SM CLR 24/24 A2999 RMK AO2 T02460242

10-Day Weather Forecast

×

Almanac

Astronomy

Sep. 01, 2015 Rise Set
Actual Time
Civil Twilight
Nautical Twilight
Astronomical Twilight
Moon
Length of Visible Light
Length of Day
Tomorrow will be .
, % of the Moon is Illuminated

Today's Extremes

State Highs State Lows

Community

WunderPhotos

Upload Photos

1,851,672 photos uploaded!

WunderBlogs® & News

Nearby

Air Quality

  Air Quality AQ Index Pollutant
Not available.

Snow Depth

Station Depth Elevation

Earthquake Activity

City Distance Mag. Time & Date
Minimum magnitude displayed is 2.5.

Coastal Water Temperatures

Place Temperature

Stations

Nearby Weather Stations

Station Location Temp. Windchill Dew Point Humidity Wind Precip. Elev Updated Type